sensor_id;sensor_type;location;lat;lon;timestamp;temperature;humidity
64062;DHT22;50308;47.438;-1.528;2023-04-06T00:01:59;12.50;77.00
64062;DHT22;50308;47.438;-1.528;2023-04-06T00:04:25;12.50;77.00
64062;DHT22;50308;47.438;-1.528;2023-04-06T00:06:51;12.50;76.70
64062;DHT22;50308;47.438;-1.528;2023-04-06T00:09:16;12.50;76.70
64062;DHT22;50308;47.438;-1.528;2023-04-06T00:11:42;12.50;77.20
64062;DHT22;50308;47.438;-1.528;2023-04-06T00:14:08;12.50;77.00
64062;DHT22;50308;47.438;-1.528;2023-04-06T00:16:33;12.50;77.00
64062;DHT22;50308;47.438;-1.528;2023-04-06T00:18:59;12.50;77.00
64062;DHT22;50308;47.438;-1.528;2023-04-06T00:21:25;12.50;77.00
64062;DHT22;50308;47.438;-1.528;2023-04-06T00:23:51;12.40;76.90
64062;DHT22;50308;47.438;-1.528;2023-04-06T00:26:16;12.50;77.00
64062;DHT22;50308;47.438;-1.528;2023-04-06T00:28:42;12.40;76.90
64062;DHT22;50308;47.438;-1.528;2023-04-06T00:31:08;12.40;77.00
64062;DHT22;50308;47.438;-1.528;2023-04-06T00:33:33;12.50;77.30
64062;DHT22;50308;47.438;-1.528;2023-04-06T00:35:59;12.40;77.00
64062;DHT22;50308;47.438;-1.528;2023-04-06T00:38:25;12.50;77.00
64062;DHT22;50308;47.438;-1.528;2023-04-06T00:40:51;12.40;76.90
64062;DHT22;50308;47.438;-1.528;2023-04-06T00:43:17;12.40;76.90
64062;DHT22;50308;47.438;-1.528;2023-04-06T00:45:42;12.40;76.90
64062;DHT22;50308;47.438;-1.528;2023-04-06T00:48:08;12.40;78.30
64062;DHT22;50308;47.438;-1.528;2023-04-06T00:50:35;12.40;78.30
64062;DHT22;50308;47.438;-1.528;2023-04-06T00:53:01;12.40;77.40
64062;DHT22;50308;47.438;-1.528;2023-04-06T00:55:27;12.40;77.40
64062;DHT22;50308;47.438;-1.528;2023-04-06T00:57:54;12.40;77.00
64062;DHT22;50308;47.438;-1.528;2023-04-06T01:00:20;12.40;77.20
64062;DHT22;50308;47.438;-1.528;2023-04-06T01:02:46;12.30;77.80
64062;DHT22;50308;47.438;-1.528;2023-04-06T01:05:13;12.30;78.40
64062;DHT22;50308;47.438;-1.528;2023-04-06T01:07:39;12.40;77.10
64062;DHT22;50308;47.438;-1.528;2023-04-06T01:10:05;12.40;77.00
64062;DHT22;50308;47.438;-1.528;2023-04-06T01:12:30;12.40;76.70
64062;DHT22;50308;47.438;-1.528;2023-04-06T01:14:56;12.40;77.00
64062;DHT22;50308;47.438;-1.528;2023-04-06T01:17:22;12.40;77.20
64062;DHT22;50308;47.438;-1.528;2023-04-06T01:19:48;12.40;77.40
64062;DHT22;50308;47.438;-1.528;2023-04-06T01:22:18;12.40;77.20
64062;DHT22;50308;47.438;-1.528;2023-04-06T01:24:44;12.40;77.40
64062;DHT22;50308;47.438;-1.528;2023-04-06T01:27:10;12.40;77.50
64062;DHT22;50308;47.438;-1.528;2023-04-06T01:29:36;12.40;77.50
64062;DHT22;50308;47.438;-1.528;2023-04-06T01:32:02;12.40;77.60
64062;DHT22;50308;47.438;-1.528;2023-04-06T01:34:28;12.40;77.60
64062;DHT22;50308;47.438;-1.528;2023-04-06T01:36:54;12.40;77.20
64062;DHT22;50308;47.438;-1.528;2023-04-06T01:39:20;12.40;77.10
64062;DHT22;50308;47.438;-1.528;2023-04-06T01:41:46;12.40;77.50
64062;DHT22;50308;47.438;-1.528;2023-04-06T01:44:17;12.40;77.60
64062;DHT22;50308;47.438;-1.528;2023-04-06T01:46:44;12.40;77.70
64062;DHT22;50308;47.438;-1.528;2023-04-06T01:49:09;12.40;77.90
64062;DHT22;50308;47.438;-1.528;2023-04-06T01:51:35;12.40;78.10
64062;DHT22;50308;47.438;-1.528;2023-04-06T01:54:01;12.40;78.00
64062;DHT22;50308;47.438;-1.528;2023-04-06T01:56:27;12.30;78.30
64062;DHT22;50308;47.438;-1.528;2023-04-06T01:58:52;12.20;78.20
64062;DHT22;50308;47.438;-1.528;2023-04-06T02:01:18;12.20;77.90
64062;DHT22;50308;47.438;-1.528;2023-04-06T02:03:44;12.30;77.80
64062;DHT22;50308;47.438;-1.528;2023-04-06T02:06:10;12.30;77.60
64062;DHT22;50308;47.438;-1.528;2023-04-06T02:08:35;12.30;77.60
64062;DHT22;50308;47.438;-1.528;2023-04-06T02:11:01;12.30;77.90
64062;DHT22;50308;47.438;-1.528;2023-04-06T02:13:27;12.30;77.80
64062;DHT22;50308;47.438;-1.528;2023-04-06T02:15:52;12.30;77.60
64062;DHT22;50308;47.438;-1.528;2023-04-06T02:18:18;12.30;77.80
64062;DHT22;50308;47.438;-1.528;2023-04-06T02:20:44;12.30;77.60
64062;DHT22;50308;47.438;-1.528;2023-04-06T02:23:11;12.30;77.50
64062;DHT22;50308;47.438;-1.528;2023-04-06T02:25:37;12.30;77.50
64062;DHT22;50308;47.438;-1.528;2023-04-06T02:28:03;12.30;77.80
64062;DHT22;50308;47.438;-1.528;2023-04-06T02:30:28;12.30;77.50
64062;DHT22;50308;47.438;-1.528;2023-04-06T02:32:54;12.30;77.60
64062;DHT22;50308;47.438;-1.528;2023-04-06T02:35:21;12.30;77.50
64062;DHT22;50308;47.438;-1.528;2023-04-06T02:37:46;12.20;77.10
64062;DHT22;50308;47.438;-1.528;2023-04-06T02:40:13;12.20;77.40
64062;DHT22;50308;47.438;-1.528;2023-04-06T02:42:39;12.30;77.40
64062;DHT22;50308;47.438;-1.528;2023-04-06T02:45:05;12.20;77.20
64062;DHT22;50308;47.438;-1.528;2023-04-06T02:47:31;12.30;76.90
64062;DHT22;50308;47.438;-1.528;2023-04-06T02:49:57;12.20;76.80
64062;DHT22;50308;47.438;-1.528;2023-04-06T02:52:23;12.30;76.80
64062;DHT22;50308;47.438;-1.528;2023-04-06T02:54:48;12.30;76.90
64062;DHT22;50308;47.438;-1.528;2023-04-06T02:57:16;12.30;76.80
64062;DHT22;50308;47.438;-1.528;2023-04-06T02:59:42;12.30;76.90
64062;DHT22;50308;47.438;-1.528;2023-04-06T03:02:08;12.20;76.80
64062;DHT22;50308;47.438;-1.528;2023-04-06T03:04:33;12.30;76.80
64062;DHT22;50308;47.438;-1.528;2023-04-06T03:06:59;12.30;76.90
64062;DHT22;50308;47.438;-1.528;2023-04-06T03:09:25;12.30;76.70
64062;DHT22;50308;47.438;-1.528;2023-04-06T03:11:50;12.30;76.60
64062;DHT22;50308;47.438;-1.528;2023-04-06T03:14:16;12.30;76.70
64062;DHT22;50308;47.438;-1.528;2023-04-06T03:16:47;12.20;76.90
64062;DHT22;50308;47.438;-1.528;2023-04-06T03:19:13;12.30;76.70
64062;DHT22;50308;47.438;-1.528;2023-04-06T03:21:38;12.20;76.40
64062;DHT22;50308;47.438;-1.528;2023-04-06T03:24:05;12.20;76.40
64062;DHT22;50308;47.438;-1.528;2023-04-06T03:26:31;12.30;76.40
64062;DHT22;50308;47.438;-1.528;2023-04-06T03:28:57;12.30;76.60
64062;DHT22;50308;47.438;-1.528;2023-04-06T03:31:22;12.30;76.50
64062;DHT22;50308;47.438;-1.528;2023-04-06T03:33:48;12.30;76.60
64062;DHT22;50308;47.438;-1.528;2023-04-06T03:36:14;12.30;76.50
64062;DHT22;50308;47.438;-1.528;2023-04-06T03:38:40;12.30;76.50
64062;DHT22;50308;47.438;-1.528;2023-04-06T03:41:05;12.30;76.50
64062;DHT22;50308;47.438;-1.528;2023-04-06T03:43:31;12.30;76.30
64062;DHT22;50308;47.438;-1.528;2023-04-06T03:45:57;12.30;76.20
64062;DHT22;50308;47.438;-1.528;2023-04-06T03:48:23;12.30;76.20
64062;DHT22;50308;47.438;-1.528;2023-04-06T03:50:48;12.30;76.40
64062;DHT22;50308;47.438;-1.528;2023-04-06T03:53:14;12.30;76.90
64062;DHT22;50308;47.438;-1.528;2023-04-06T03:55:40;12.20;76.80
64062;DHT22;50308;47.438;-1.528;2023-04-06T03:58:05;12.20;76.80
64062;DHT22;50308;47.438;-1.528;2023-04-06T04:00:31;12.30;76.90
64062;DHT22;50308;47.438;-1.528;2023-04-06T04:02:58;12.20;77.00
64062;DHT22;50308;47.438;-1.528;2023-04-06T04:05:24;12.10;77.50
64062;DHT22;50308;47.438;-1.528;2023-04-06T04:07:51;12.10;77.50
64062;DHT22;50308;47.438;-1.528;2023-04-06T04:10:17;12.10;77.30
64062;DHT22;50308;47.438;-1.528;2023-04-06T04:12:43;12.10;77.00
64062;DHT22;50308;47.438;-1.528;2023-04-06T04:15:09;12.20;77.20
64062;DHT22;50308;47.438;-1.528;2023-04-06T04:17:35;12.20;77.40
64062;DHT22;50308;47.438;-1.528;2023-04-06T04:20:01;12.20;77.30
64062;DHT22;50308;47.438;-1.528;2023-04-06T04:22:26;12.20;76.80
64062;DHT22;50308;47.438;-1.528;2023-04-06T04:24:53;12.20;77.30
64062;DHT22;50308;47.438;-1.528;2023-04-06T04:27:19;12.20;77.40
64062;DHT22;50308;47.438;-1.528;2023-04-06T04:29:46;12.20;77.20
64062;DHT22;50308;47.438;-1.528;2023-04-06T04:32:11;12.20;77.20
64062;DHT22;50308;47.438;-1.528;2023-04-06T04:34:37;12.20;76.80
64062;DHT22;50308;47.438;-1.528;2023-04-06T04:37:05;12.20;76.90
64062;DHT22;50308;47.438;-1.528;2023-04-06T04:39:32;12.20;77.40
64062;DHT22;50308;47.438;-1.528;2023-04-06T04:41:57;12.20;77.40
64062;DHT22;50308;47.438;-1.528;2023-04-06T04:44:23;12.20;77.00
64062;DHT22;50308;47.438;-1.528;2023-04-06T04:46:49;12.20;77.30
64062;DHT22;50308;47.438;-1.528;2023-04-06T04:49:15;12.20;76.80
64062;DHT22;50308;47.438;-1.528;2023-04-06T04:51:41;12.30;77.30
64062;DHT22;50308;47.438;-1.528;2023-04-06T04:54:06;12.20;77.40
64062;DHT22;50308;47.438;-1.528;2023-04-06T04:56:32;12.20;77.40
64062;DHT22;50308;47.438;-1.528;2023-04-06T04:58:58;12.20;77.20
64062;DHT22;50308;47.438;-1.528;2023-04-06T05:01:23;12.20;77.30
64062;DHT22;50308;47.438;-1.528;2023-04-06T05:03:49;12.20;77.40
64062;DHT22;50308;47.438;-1.528;2023-04-06T05:06:15;12.20;76.80
64062;DHT22;50308;47.438;-1.528;2023-04-06T05:08:42;12.20;77.20
64062;DHT22;50308;47.438;-1.528;2023-04-06T05:11:08;12.20;77.50
64062;DHT22;50308;47.438;-1.528;2023-04-06T05:13:34;12.20;77.40
64062;DHT22;50308;47.438;-1.528;2023-04-06T05:16:00;12.30;77.40
64062;DHT22;50308;47.438;-1.528;2023-04-06T05:18:26;12.20;77.70
64062;DHT22;50308;47.438;-1.528;2023-04-06T05:20:51;12.30;77.70
64062;DHT22;50308;47.438;-1.528;2023-04-06T05:23:17;12.30;77.70
64062;DHT22;50308;47.438;-1.528;2023-04-06T05:25:43;12.30;77.70
64062;DHT22;50308;47.438;-1.528;2023-04-06T05:28:09;12.30;77.80
64062;DHT22;50308;47.438;-1.528;2023-04-06T05:30:34;12.30;77.60
64062;DHT22;50308;47.438;-1.528;2023-04-06T05:33:01;12.30;77.60
64062;DHT22;50308;47.438;-1.528;2023-04-06T05:35:27;12.30;77.80
64062;DHT22;50308;47.438;-1.528;2023-04-06T05:37:53;12.30;78.10
64062;DHT22;50308;47.438;-1.528;2023-04-06T05:40:19;12.30;77.90
64062;DHT22;50308;47.438;-1.528;2023-04-06T05:42:45;12.30;77.90
64062;DHT22;50308;47.438;-1.528;2023-04-06T05:45:11;12.30;78.00
64062;DHT22;50308;47.438;-1.528;2023-04-06T05:47:42;12.30;77.90
64062;DHT22;50308;47.438;-1.528;2023-04-06T05:50:14;12.30;78.20
64062;DHT22;50308;47.438;-1.528;2023-04-06T05:52:40;12.30;78.00
64062;DHT22;50308;47.438;-1.528;2023-04-06T05:55:09;12.30;77.90
64062;DHT22;50308;47.438;-1.528;2023-04-06T05:57:34;12.30;78.10
64062;DHT22;50308;47.438;-1.528;2023-04-06T06:00:00;12.30;78.20
64062;DHT22;50308;47.438;-1.528;2023-04-06T06:02:26;12.30;78.00
64062;DHT22;50308;47.438;-1.528;2023-04-06T06:04:52;12.30;78.10
64062;DHT22;50308;47.438;-1.528;2023-04-06T06:07:17;12.30;78.10
64062;DHT22;50308;47.438;-1.528;2023-04-06T06:09:43;12.30;78.30
64062;DHT22;50308;47.438;-1.528;2023-04-06T06:12:09;12.30;78.40
64062;DHT22;50308;47.438;-1.528;2023-04-06T06:14:35;12.30;78.10
64062;DHT22;50308;47.438;-1.528;2023-04-06T06:17:01;12.30;78.10
64062;DHT22;50308;47.438;-1.528;2023-04-06T06:19:26;12.30;78.10
64062;DHT22;50308;47.438;-1.528;2023-04-06T06:21:52;12.30;78.70
64062;DHT22;50308;47.438;-1.528;2023-04-06T06:24:18;12.30;78.30
64062;DHT22;50308;47.438;-1.528;2023-04-06T06:26:43;12.30;78.30
64062;DHT22;50308;47.438;-1.528;2023-04-06T06:29:09;12.30;78.50
64062;DHT22;50308;47.438;-1.528;2023-04-06T06:31:35;12.30;78.50
64062;DHT22;50308;47.438;-1.528;2023-04-06T06:34:01;12.40;78.70
64062;DHT22;50308;47.438;-1.528;2023-04-06T06:36:27;12.40;78.60
64062;DHT22;50308;47.438;-1.528;2023-04-06T06:38:53;12.40;78.80
64062;DHT22;50308;47.438;-1.528;2023-04-06T06:41:19;12.40;78.80
64062;DHT22;50308;47.438;-1.528;2023-04-06T06:43:45;12.40;79.10
64062;DHT22;50308;47.438;-1.528;2023-04-06T06:46:10;12.40;79.40
64062;DHT22;50308;47.438;-1.528;2023-04-06T06:48:36;12.40;79.40
64062;DHT22;50308;47.438;-1.528;2023-04-06T06:51:02;12.40;79.70
64062;DHT22;50308;47.438;-1.528;2023-04-06T06:53:28;12.40;79.20
64062;DHT22;50308;47.438;-1.528;2023-04-06T06:55:54;12.40;79.90
64062;DHT22;50308;47.438;-1.528;2023-04-06T06:58:19;12.40;79.90
64062;DHT22;50308;47.438;-1.528;2023-04-06T07:00:46;12.40;79.80
64062;DHT22;50308;47.438;-1.528;2023-04-06T07:03:12;12.40;80.00
64062;DHT22;50308;47.438;-1.528;2023-04-06T07:05:37;12.40;80.10
64062;DHT22;50308;47.438;-1.528;2023-04-06T07:08:03;12.50;80.30
64062;DHT22;50308;47.438;-1.528;2023-04-06T07:10:29;12.50;79.70
64062;DHT22;50308;47.438;-1.528;2023-04-06T07:12:55;12.50;79.50
64062;DHT22;50308;47.438;-1.528;2023-04-06T07:15:21;12.50;80.20
64062;DHT22;50308;47.438;-1.528;2023-04-06T07:17:47;12.50;79.40
64062;DHT22;50308;47.438;-1.528;2023-04-06T07:20:13;12.50;79.90
64062;DHT22;50308;47.438;-1.528;2023-04-06T07:22:42;12.50;80.60
64062;DHT22;50308;47.438;-1.528;2023-04-06T07:25:08;12.50;80.00
64062;DHT22;50308;47.438;-1.528;2023-04-06T07:27:33;12.50;79.20
64062;DHT22;50308;47.438;-1.528;2023-04-06T07:29:59;12.50;79.40
64062;DHT22;50308;47.438;-1.528;2023-04-06T07:32:25;12.50;79.90
64062;DHT22;50308;47.438;-1.528;2023-04-06T07:34:51;12.50;79.70
64062;DHT22;50308;47.438;-1.528;2023-04-06T07:37:17;12.60;80.20
64062;DHT22;50308;47.438;-1.528;2023-04-06T07:39:43;12.60;80.10
64062;DHT22;50308;47.438;-1.528;2023-04-06T07:42:09;12.60;80.70
64062;DHT22;50308;47.438;-1.528;2023-04-06T07:44:34;12.60;78.50
64062;DHT22;50308;47.438;-1.528;2023-04-06T07:47:00;12.60;79.70
64062;DHT22;50308;47.438;-1.528;2023-04-06T07:49:26;12.60;78.90
64062;DHT22;50308;47.438;-1.528;2023-04-06T07:51:51;12.70;81.00
64062;DHT22;50308;47.438;-1.528;2023-04-06T07:54:17;12.70;79.70
64062;DHT22;50308;47.438;-1.528;2023-04-06T07:56:43;12.70;79.00
64062;DHT22;50308;47.438;-1.528;2023-04-06T07:59:09;12.70;78.80
64062;DHT22;50308;47.438;-1.528;2023-04-06T08:01:36;12.70;79.60
64062;DHT22;50308;47.438;-1.528;2023-04-06T08:04:02;12.70;79.10
64062;DHT22;50308;47.438;-1.528;2023-04-06T08:06:28;12.70;79.60
64062;DHT22;50308;47.438;-1.528;2023-04-06T08:08:54;12.70;80.00
64062;DHT22;50308;47.438;-1.528;2023-04-06T08:11:19;12.70;79.70
64062;DHT22;50308;47.438;-1.528;2023-04-06T08:13:46;12.70;79.80
64062;DHT22;50308;47.438;-1.528;2023-04-06T08:16:11;12.70;79.10
64062;DHT22;50308;47.438;-1.528;2023-04-06T08:18:37;12.80;78.70
64062;DHT22;50308;47.438;-1.528;2023-04-06T08:21:03;12.70;78.30
64062;DHT22;50308;47.438;-1.528;2023-04-06T08:23:29;12.70;78.00
64062;DHT22;50308;47.438;-1.528;2023-04-06T08:25:55;12.80;78.10
64062;DHT22;50308;47.438;-1.528;2023-04-06T08:28:21;12.80;77.90
64062;DHT22;50308;47.438;-1.528;2023-04-06T08:30:47;12.80;77.60
64062;DHT22;50308;47.438;-1.528;2023-04-06T08:33:13;12.80;77.80
64062;DHT22;50308;47.438;-1.528;2023-04-06T08:35:39;12.80;77.30
64062;DHT22;50308;47.438;-1.528;2023-04-06T08:38:05;12.80;77.40
64062;DHT22;50308;47.438;-1.528;2023-04-06T08:40:38;12.80;77.60
64062;DHT22;50308;47.438;-1.528;2023-04-06T08:43:08;12.80;77.60
64062;DHT22;50308;47.438;-1.528;2023-04-06T08:45:35;12.80;77.60
64062;DHT22;50308;47.438;-1.528;2023-04-06T08:48:02;12.80;77.90
64062;DHT22;50308;47.438;-1.528;2023-04-06T08:50:30;12.80;77.60
64062;DHT22;50308;47.438;-1.528;2023-04-06T08:52:56;12.80;77.30
64062;DHT22;50308;47.438;-1.528;2023-04-06T08:55:22;12.90;77.50
64062;DHT22;50308;47.438;-1.528;2023-04-06T08:57:49;12.90;78.00
64062;DHT22;50308;47.438;-1.528;2023-04-06T09:00:16;12.90;77.70
64062;DHT22;50308;47.438;-1.528;2023-04-06T09:02:45;12.90;78.50
64062;DHT22;50308;47.438;-1.528;2023-04-06T09:05:11;12.90;78.00
64062;DHT22;50308;47.438;-1.528;2023-04-06T09:07:38;12.90;77.90
64062;DHT22;50308;47.438;-1.528;2023-04-06T09:10:05;12.90;77.50
64062;DHT22;50308;47.438;-1.528;2023-04-06T09:12:32;12.90;77.80
64062;DHT22;50308;47.438;-1.528;2023-04-06T09:14:59;12.90;77.70
64062;DHT22;50308;47.438;-1.528;2023-04-06T09:17:29;12.90;77.20
64062;DHT22;50308;47.438;-1.528;2023-04-06T09:19:56;12.90;77.70
64062;DHT22;50308;47.438;-1.528;2023-04-06T09:22:22;12.90;77.90
64062;DHT22;50308;47.438;-1.528;2023-04-06T09:24:51;12.90;77.80
64062;DHT22;50308;47.438;-1.528;2023-04-06T09:27:19;12.90;77.60
64062;DHT22;50308;47.438;-1.528;2023-04-06T09:30:06;12.90;77.70
64062;DHT22;50308;47.438;-1.528;2023-04-06T09:32:33;13.00;77.80
64062;DHT22;50308;47.438;-1.528;2023-04-06T09:35:09;13.00;77.50
64062;DHT22;50308;47.438;-1.528;2023-04-06T09:37:35;13.00;77.50
64062;DHT22;50308;47.438;-1.528;2023-04-06T09:40:07;13.00;77.40
64062;DHT22;50308;47.438;-1.528;2023-04-06T09:42:34;13.00;77.80
64062;DHT22;50308;47.438;-1.528;2023-04-06T09:45:01;13.00;77.20
64062;DHT22;50308;47.438;-1.528;2023-04-06T09:47:27;13.00;77.30
64062;DHT22;50308;47.438;-1.528;2023-04-06T09:49:57;13.00;78.30
64062;DHT22;50308;47.438;-1.528;2023-04-06T09:53:01;13.00;77.30
64062;DHT22;50308;47.438;-1.528;2023-04-06T09:55:30;13.00;77.30
64062;DHT22;50308;47.438;-1.528;2023-04-06T09:58:05;13.00;77.70
64062;DHT22;50308;47.438;-1.528;2023-04-06T10:00:42;13.00;77.30
64062;DHT22;50308;47.438;-1.528;2023-04-06T10:03:18;13.00;77.30
64062;DHT22;50308;47.438;-1.528;2023-04-06T10:05:52;13.10;77.70
64062;DHT22;50308;47.438;-1.528;2023-04-06T10:08:19;13.10;78.10
64062;DHT22;50308;47.438;-1.528;2023-04-06T10:10:46;13.10;79.00
64062;DHT22;50308;47.438;-1.528;2023-04-06T10:13:12;13.10;77.90
64062;DHT22;50308;47.438;-1.528;2023-04-06T10:15:38;13.10;78.30
64062;DHT22;50308;47.438;-1.528;2023-04-06T10:18:08;13.10;77.80
64062;DHT22;50308;47.438;-1.528;2023-04-06T10:23:41;13.10;77.60
64062;DHT22;50308;47.438;-1.528;2023-04-06T10:26:17;13.10;77.40
64062;DHT22;50308;47.438;-1.528;2023-04-06T10:28:46;13.10;77.40
64062;DHT22;50308;47.438;-1.528;2023-04-06T10:31:13;13.10;78.50
64062;DHT22;50308;47.438;-1.528;2023-04-06T10:33:38;13.10;77.30
64062;DHT22;50308;47.438;-1.528;2023-04-06T10:36:13;13.10;78.00
64062;DHT22;50308;47.438;-1.528;2023-04-06T10:38:40;13.10;78.50
64062;DHT22;50308;47.438;-1.528;2023-04-06T10:41:07;13.10;77.80
64062;DHT22;50308;47.438;-1.528;2023-04-06T10:43:34;13.20;78.80
64062;DHT22;50308;47.438;-1.528;2023-04-06T10:46:05;13.10;77.90
64062;DHT22;50308;47.438;-1.528;2023-04-06T10:48:41;13.10;78.60
64062;DHT22;50308;47.438;-1.528;2023-04-06T10:51:14;13.10;78.30
64062;DHT22;50308;47.438;-1.528;2023-04-06T10:53:47;13.20;78.30
64062;DHT22;50308;47.438;-1.528;2023-04-06T10:56:18;13.20;77.80
64062;DHT22;50308;47.438;-1.528;2023-04-06T10:58:53;13.20;78.00
64062;DHT22;50308;47.438;-1.528;2023-04-06T11:01:22;13.20;79.10
64062;DHT22;50308;47.438;-1.528;2023-04-06T11:03:52;13.20;78.60
64062;DHT22;50308;47.438;-1.528;2023-04-06T11:06:28;13.20;78.10
64062;DHT22;50308;47.438;-1.528;2023-04-06T11:08:55;13.20;78.90
64062;DHT22;50308;47.438;-1.528;2023-04-06T11:11:23;13.20;77.90
64062;DHT22;50308;47.438;-1.528;2023-04-06T11:13:56;13.20;78.20
64062;DHT22;50308;47.438;-1.528;2023-04-06T11:16:30;13.20;78.10
64062;DHT22;50308;47.438;-1.528;2023-04-06T11:19:00;13.20;78.40
64062;DHT22;50308;47.438;-1.528;2023-04-06T11:21:44;13.20;78.20
64062;DHT22;50308;47.438;-1.528;2023-04-06T11:24:22;13.20;78.40
64062;DHT22;50308;47.438;-1.528;2023-04-06T11:29:18;13.20;79.10
64062;DHT22;50308;47.438;-1.528;2023-04-06T11:31:50;13.30;78.40
64062;DHT22;50308;47.438;-1.528;2023-04-06T11:34:21;13.30;79.10
64062;DHT22;50308;47.438;-1.528;2023-04-06T11:36:49;13.20;79.20
64062;DHT22;50308;47.438;-1.528;2023-04-06T11:39:20;13.20;78.90
64062;DHT22;50308;47.438;-1.528;2023-04-06T11:41:49;13.30;78.70
64062;DHT22;50308;47.438;-1.528;2023-04-06T11:44:40;13.20;78.40
64062;DHT22;50308;47.438;-1.528;2023-04-06T11:47:09;13.30;78.90
64062;DHT22;50308;47.438;-1.528;2023-04-06T11:49:40;13.30;79.20
64062;DHT22;50308;47.438;-1.528;2023-04-06T11:52:16;13.30;79.10
64062;DHT22;50308;47.438;-1.528;2023-04-06T11:54:43;13.30;79.10
64062;DHT22;50308;47.438;-1.528;2023-04-06T11:57:09;13.30;81.00
64062;DHT22;50308;47.438;-1.528;2023-04-06T11:59:35;13.30;78.40
64062;DHT22;50308;47.438;-1.528;2023-04-06T12:02:01;13.30;79.40
64062;DHT22;50308;47.438;-1.528;2023-04-06T12:04:27;13.30;78.70
64062;DHT22;50308;47.438;-1.528;2023-04-06T12:06:53;13.30;78.90
64062;DHT22;50308;47.438;-1.528;2023-04-06T12:09:19;13.30;79.30
64062;DHT22;50308;47.438;-1.528;2023-04-06T12:11:45;13.30;79.50
64062;DHT22;50308;47.438;-1.528;2023-04-06T12:14:11;13.40;80.90
64062;DHT22;50308;47.438;-1.528;2023-04-06T12:16:37;13.40;80.30
64062;DHT22;50308;47.438;-1.528;2023-04-06T12:19:03;13.30;78.90
64062;DHT22;50308;47.438;-1.528;2023-04-06T12:21:30;13.30;78.70
64062;DHT22;50308;47.438;-1.528;2023-04-06T12:23:59;13.30;79.70
64062;DHT22;50308;47.438;-1.528;2023-04-06T12:26:25;13.30;78.90
64062;DHT22;50308;47.438;-1.528;2023-04-06T12:28:51;13.30;79.90
64062;DHT22;50308;47.438;-1.528;2023-04-06T12:31:17;13.40;80.60
64062;DHT22;50308;47.438;-1.528;2023-04-06T12:33:46;13.40;80.50
64062;DHT22;50308;47.438;-1.528;2023-04-06T12:36:16;13.40;79.50
64062;DHT22;50308;47.438;-1.528;2023-04-06T12:38:44;13.30;80.10
64062;DHT22;50308;47.438;-1.528;2023-04-06T12:41:11;13.40;79.40
64062;DHT22;50308;47.438;-1.528;2023-04-06T12:43:38;13.40;79.80
64062;DHT22;50308;47.438;-1.528;2023-04-06T12:46:04;13.40;80.30
64062;DHT22;50308;47.438;-1.528;2023-04-06T12:48:31;13.40;81.10
64062;DHT22;50308;47.438;-1.528;2023-04-06T12:51:01;13.40;79.70
64062;DHT22;50308;47.438;-1.528;2023-04-06T12:53:27;13.40;79.10
64062;DHT22;50308;47.438;-1.528;2023-04-06T12:55:54;13.40;79.00
64062;DHT22;50308;47.438;-1.528;2023-04-06T12:58:21;13.40;79.50
64062;DHT22;50308;47.438;-1.528;2023-04-06T13:00:50;13.40;79.30
64062;DHT22;50308;47.438;-1.528;2023-04-06T13:03:17;13.40;79.70
64062;DHT22;50308;47.438;-1.528;2023-04-06T13:05:50;13.40;79.50
64062;DHT22;50308;47.438;-1.528;2023-04-06T13:08:18;13.40;79.30
64062;DHT22;50308;47.438;-1.528;2023-04-06T13:10:44;13.40;79.50
64062;DHT22;50308;47.438;-1.528;2023-04-06T13:13:12;13.40;81.10
64062;DHT22;50308;47.438;-1.528;2023-04-06T13:15:38;13.50;80.10
64062;DHT22;50308;47.438;-1.528;2023-04-06T13:18:04;13.40;80.40
64062;DHT22;50308;47.438;-1.528;2023-04-06T13:20:30;13.40;80.10
64062;DHT22;50308;47.438;-1.528;2023-04-06T13:22:56;13.40;79.70
64062;DHT22;50308;47.438;-1.528;2023-04-06T13:25:21;13.40;81.50
64062;DHT22;50308;47.438;-1.528;2023-04-06T13:27:47;13.50;81.30
64062;DHT22;50308;47.438;-1.528;2023-04-06T13:30:14;13.50;80.70
64062;DHT22;50308;47.438;-1.528;2023-04-06T13:32:40;13.50;81.00
64062;DHT22;50308;47.438;-1.528;2023-04-06T13:35:06;13.50;80.80
64062;DHT22;50308;47.438;-1.528;2023-04-06T13:37:33;13.50;80.40
64062;DHT22;50308;47.438;-1.528;2023-04-06T13:39:58;13.50;81.20
64062;DHT22;50308;47.438;-1.528;2023-04-06T13:42:24;13.50;79.70
64062;DHT22;50308;47.438;-1.528;2023-04-06T13:44:50;13.50;80.20
64062;DHT22;50308;47.438;-1.528;2023-04-06T13:47:17;13.50;80.90
64062;DHT22;50308;47.438;-1.528;2023-04-06T13:49:43;13.50;80.20
64062;DHT22;50308;47.438;-1.528;2023-04-06T13:52:08;13.50;80.10
64062;DHT22;50308;47.438;-1.528;2023-04-06T13:54:35;13.50;79.90
64062;DHT22;50308;47.438;-1.528;2023-04-06T13:57:02;13.50;80.20
64062;DHT22;50308;47.438;-1.528;2023-04-06T13:59:37;13.50;81.80
64062;DHT22;50308;47.438;-1.528;2023-04-06T14:02:04;13.60;82.40
64062;DHT22;50308;47.438;-1.528;2023-04-06T14:04:31;13.60;81.20
64062;DHT22;50308;47.438;-1.528;2023-04-06T14:06:57;13.60;81.00
64062;DHT22;50308;47.438;-1.528;2023-04-06T14:09:23;13.60;80.50
64062;DHT22;50308;47.438;-1.528;2023-04-06T14:11:49;13.60;80.80
64062;DHT22;50308;47.438;-1.528;2023-04-06T14:14:16;13.60;82.00
64062;DHT22;50308;47.438;-1.528;2023-04-06T14:16:42;13.60;83.40
64062;DHT22;50308;47.438;-1.528;2023-04-06T14:19:11;13.60;81.20
64062;DHT22;50308;47.438;-1.528;2023-04-06T14:21:40;13.60;81.10
64062;DHT22;50308;47.438;-1.528;2023-04-06T14:24:07;13.60;82.00
64062;DHT22;50308;47.438;-1.528;2023-04-06T14:26:34;13.60;81.30
64062;DHT22;50308;47.438;-1.528;2023-04-06T14:29:00;13.70;81.90
64062;DHT22;50308;47.438;-1.528;2023-04-06T14:31:26;13.60;80.80
64062;DHT22;50308;47.438;-1.528;2023-04-06T14:33:52;13.70;81.00
64062;DHT22;50308;47.438;-1.528;2023-04-06T14:36:18;13.60;80.80
64062;DHT22;50308;47.438;-1.528;2023-04-06T14:38:44;13.70;83.60
64062;DHT22;50308;47.438;-1.528;2023-04-06T14:41:19;13.70;82.00
64062;DHT22;50308;47.438;-1.528;2023-04-06T14:43:48;13.70;83.70
64062;DHT22;50308;47.438;-1.528;2023-04-06T14:46:14;13.70;83.60
64062;DHT22;50308;47.438;-1.528;2023-04-06T14:48:41;13.70;83.70
64062;DHT22;50308;47.438;-1.528;2023-04-06T14:51:07;13.60;81.70
64062;DHT22;50308;47.438;-1.528;2023-04-06T14:53:33;13.60;82.40
64062;DHT22;50308;47.438;-1.528;2023-04-06T14:55:59;13.70;83.60
64062;DHT22;50308;47.438;-1.528;2023-04-06T14:58:25;13.70;82.10
64062;DHT22;50308;47.438;-1.528;2023-04-06T15:00:57;13.70;84.30
64062;DHT22;50308;47.438;-1.528;2023-04-06T15:03:24;13.70;81.80
64062;DHT22;50308;47.438;-1.528;2023-04-06T15:05:54;13.70;82.20
64062;DHT22;50308;47.438;-1.528;2023-04-06T15:08:21;13.70;81.80
64062;DHT22;50308;47.438;-1.528;2023-04-06T15:10:48;13.70;82.30
64062;DHT22;50308;47.438;-1.528;2023-04-06T15:13:14;13.70;82.40
64062;DHT22;50308;47.438;-1.528;2023-04-06T15:15:41;13.70;82.50
64062;DHT22;50308;47.438;-1.528;2023-04-06T15:18:07;13.70;82.20
64062;DHT22;50308;47.438;-1.528;2023-04-06T15:20:33;13.70;82.00